sensor_id;sensor_type;location;lat;lon;timestamp;P1;durP1;ratioP1;P2;durP2;ratioP2
58966;SDS011;44744;51.894;5.080;2022-11-20T00:05:49;12.80;;;9.50;;
58966;SDS011;44744;51.894;5.080;2022-11-20T00:06:50;14.40;;;10.40;;
58966;SDS011;44744;51.894;5.080;2022-11-20T00:07:51;15.80;;;10.40;;
58966;SDS011;44744;51.894;5.080;2022-11-20T00:08:53;17.10;;;10.30;;
58966;SDS011;44744;51.894;5.080;2022-11-20T00:09:55;14.20;;;10.30;;
58966;SDS011;44744;51.894;5.080;2022-11-20T00:10:55;14.90;;;10.00;;
58966;SDS011;44744;51.894;5.080;2022-11-20T00:11:58;13.40;;;9.70;;
58966;SDS011;44744;51.894;5.080;2022-11-20T00:12:59;14.50;;;10.50;;
58966;SDS011;44744;51.894;5.080;2022-11-20T00:14:00;13.70;;;9.70;;
58966;SDS011;44744;51.894;5.080;2022-11-20T00:15:02;16.80;;;10.60;;
58966;SDS011;44744;51.894;5.080;2022-11-20T00:16:03;15.90;;;10.80;;
58966;SDS011;44744;51.894;5.080;2022-11-20T00:17:06;15.10;;;10.40;;
58966;SDS011;44744;51.894;5.080;2022-11-20T00:18:07;15.00;;;10.70;;
58966;SDS011;44744;51.894;5.080;2022-11-20T00:19:07;13.70;;;10.10;;
58966;SDS011;44744;51.894;5.080;2022-11-20T00:20:08;15.90;;;10.90;;
58966;SDS011;44744;51.894;5.080;2022-11-20T00:21:15;14.90;;;11.30;;
58966;SDS011;44744;51.894;5.080;2022-11-20T00:22:26;14.80;;;10.10;;
58966;SDS011;44744;51.894;5.080;2022-11-20T00:23:27;18.30;;;10.50;;
58966;SDS011;44744;51.894;5.080;2022-11-20T00:24:27;13.80;;;9.50;;
58966;SDS011;44744;51.894;5.080;2022-11-20T00:25:28;15.30;;;10.60;;
58966;SDS011;44744;51.894;5.080;2022-11-20T00:26:28;13.10;;;9.30;;
58966;SDS011;44744;51.894;5.080;2022-11-20T00:27:29;14.90;;;9.90;;
58966;SDS011;44744;51.894;5.080;2022-11-20T00:28:42;13.90;;;9.90;;
58966;SDS011;44744;51.894;5.080;2022-11-20T00:29:43;15.60;;;10.40;;
58966;SDS011;44744;51.894;5.080;2022-11-20T00:30:52;16.20;;;11.40;;
58966;SDS011;44744;51.894;5.080;2022-11-20T00:31:59;13.20;;;9.10;;
58966;SDS011;44744;51.894;5.080;2022-11-20T00:33:00;14.80;;;10.10;;
58966;SDS011;44744;51.894;5.080;2022-11-20T00:34:00;14.40;;;10.00;;
58966;SDS011;44744;51.894;5.080;2022-11-20T00:35:04;15.00;;;10.60;;
58966;SDS011;44744;51.894;5.080;2022-11-20T00:36:05;16.30;;;9.60;;
58966;SDS011;44744;51.894;5.080;2022-11-20T00:37:07;18.20;;;11.00;;
58966;SDS011;44744;51.894;5.080;2022-11-20T00:38:08;14.70;;;9.90;;
58966;SDS011;44744;51.894;5.080;2022-11-20T00:39:08;15.60;;;10.80;;
58966;SDS011;44744;51.894;5.080;2022-11-20T00:40:09;13.90;;;9.80;;
58966;SDS011;44744;51.894;5.080;2022-11-20T00:41:11;15.50;;;10.60;;
58966;SDS011;44744;51.894;5.080;2022-11-20T00:42:15;15.60;;;10.30;;
58966;SDS011;44744;51.894;5.080;2022-11-20T00:43:15;15.30;;;10.00;;
58966;SDS011;44744;51.894;5.080;2022-11-20T00:44:16;14.00;;;10.10;;
58966;SDS011;44744;51.894;5.080;2022-11-20T00:45:27;15.20;;;10.70;;
58966;SDS011;44744;51.894;5.080;2022-11-20T00:46:30;21.00;;;10.90;;
58966;SDS011;44744;51.894;5.080;2022-11-20T00:47:33;15.90;;;11.20;;
58966;SDS011;44744;51.894;5.080;2022-11-20T00:48:37;14.40;;;10.20;;
58966;SDS011;44744;51.894;5.080;2022-11-20T00:49:37;14.90;;;10.70;;
58966;SDS011;44744;51.894;5.080;2022-11-20T00:50:38;16.30;;;10.80;;
58966;SDS011;44744;51.894;5.080;2022-11-20T00:51:52;14.00;;;10.00;;
58966;SDS011;44744;51.894;5.080;2022-11-20T00:52:52;15.30;;;10.60;;
58966;SDS011;44744;51.894;5.080;2022-11-20T00:53:58;14.30;;;10.10;;
58966;SDS011;44744;51.894;5.080;2022-11-20T00:55:01;14.10;;;9.40;;
58966;SDS011;44744;51.894;5.080;2022-11-20T00:56:03;14.80;;;9.90;;
58966;SDS011;44744;51.894;5.080;2022-11-20T00:57:10;16.40;;;10.10;;
58966;SDS011;44744;51.894;5.080;2022-11-20T00:58:13;15.50;;;10.40;;
58966;SDS011;44744;51.894;5.080;2022-11-20T00:59:13;14.60;;;10.30;;
58966;SDS011;44744;51.894;5.080;2022-11-20T01:00:14;15.10;;;10.70;;
58966;SDS011;44744;51.894;5.080;2022-11-20T01:01:19;14.00;;;9.90;;
58966;SDS011;44744;51.894;5.080;2022-11-20T01:02:24;15.10;;;9.60;;
58966;SDS011;44744;51.894;5.080;2022-11-20T01:03:24;14.50;;;10.30;;
58966;SDS011;44744;51.894;5.080;2022-11-20T01:04:25;14.50;;;9.70;;
58966;SDS011;44744;51.894;5.080;2022-11-20T01:05:25;15.00;;;9.90;;
58966;SDS011;44744;51.894;5.080;2022-11-20T01:06:30;14.30;;;9.80;;
58966;SDS011;44744;51.894;5.080;2022-11-20T01:07:37;14.00;;;10.20;;
58966;SDS011;44744;51.894;5.080;2022-11-20T01:08:38;13.70;;;10.00;;
58966;SDS011;44744;51.894;5.080;2022-11-20T01:09:46;14.50;;;10.30;;
58966;SDS011;44744;51.894;5.080;2022-11-20T01:10:53;14.40;;;10.30;;
58966;SDS011;44744;51.894;5.080;2022-11-20T01:11:59;15.50;;;11.00;;
58966;SDS011;44744;51.894;5.080;2022-11-20T01:12:59;14.40;;;10.90;;
58966;SDS011;44744;51.894;5.080;2022-11-20T01:14:00;13.00;;;9.60;;
58966;SDS011;44744;51.894;5.080;2022-11-20T01:15:02;14.40;;;10.20;;
58966;SDS011;44744;51.894;5.080;2022-11-20T01:16:04;15.30;;;10.20;;
58966;SDS011;44744;51.894;5.080;2022-11-20T01:18:07;17.10;;;10.80;;
58966;SDS011;44744;51.894;5.080;2022-11-20T01:19:14;15.60;;;10.60;;
58966;SDS011;44744;51.894;5.080;2022-11-20T01:20:16;15.10;;;9.90;;
58966;SDS011;44744;51.894;5.080;2022-11-20T01:21:19;15.40;;;9.90;;
58966;SDS011;44744;51.894;5.080;2022-11-20T01:22:21;14.20;;;10.40;;
58966;SDS011;44744;51.894;5.080;2022-11-20T01:23:21;13.30;;;9.90;;
58966;SDS011;44744;51.894;5.080;2022-11-20T01:24:24;16.80;;;11.00;;
58966;SDS011;44744;51.894;5.080;2022-11-20T01:25:28;13.40;;;9.40;;
58966;SDS011;44744;51.894;5.080;2022-11-20T01:26:36;16.00;;;10.90;;
58966;SDS011;44744;51.894;5.080;2022-11-20T01:27:38;13.80;;;10.10;;
58966;SDS011;44744;51.894;5.080;2022-11-20T01:28:39;13.50;;;9.70;;
58966;SDS011;44744;51.894;5.080;2022-11-20T01:29:40;13.10;;;9.30;;
58966;SDS011;44744;51.894;5.080;2022-11-20T01:30:46;18.70;;;10.30;;
58966;SDS011;44744;51.894;5.080;2022-11-20T01:31:47;16.70;;;10.40;;
58966;SDS011;44744;51.894;5.080;2022-11-20T01:32:58;14.50;;;10.20;;
58966;SDS011;44744;51.894;5.080;2022-11-20T01:34:20;15.00;;;9.50;;
58966;SDS011;44744;51.894;5.080;2022-11-20T01:39:16;14.90;;;9.50;;
58966;SDS011;44744;51.894;5.080;2022-11-20T01:40:27;17.10;;;10.80;;
58966;SDS011;44744;51.894;5.080;2022-11-20T01:41:33;13.40;;;10.00;;
58966;SDS011;44744;51.894;5.080;2022-11-20T01:42:36;12.50;;;9.00;;
58966;SDS011;44744;51.894;5.080;2022-11-20T01:43:37;16.10;;;10.70;;
58966;SDS011;44744;51.894;5.080;2022-11-20T01:47:18;14.60;;;10.20;;
58966;SDS011;44744;51.894;5.080;2022-11-20T01:59:05;16.00;;;11.40;;
58966;SDS011;44744;51.894;5.080;2022-11-20T02:00:25;17.50;;;11.40;;
58966;SDS011;44744;51.894;5.080;2022-11-20T02:01:36;15.60;;;10.60;;
58966;SDS011;44744;51.894;5.080;2022-11-20T02:02:36;16.00;;;10.50;;
58966;SDS011;44744;51.894;5.080;2022-11-20T02:04:00;14.30;;;10.20;;
58966;SDS011;44744;51.894;5.080;2022-11-20T02:06:48;14.30;;;9.90;;
58966;SDS011;44744;51.894;5.080;2022-11-20T02:07:54;14.00;;;9.70;;
58966;SDS011;44744;51.894;5.080;2022-11-20T02:10:20;13.40;;;9.40;;
58966;SDS011;44744;51.894;5.080;2022-11-20T02:11:44;13.50;;;9.90;;
58966;SDS011;44744;51.894;5.080;2022-11-20T02:12:47;14.80;;;10.30;;
58966;SDS011;44744;51.894;5.080;2022-11-20T02:13:48;15.30;;;9.70;;
58966;SDS011;44744;51.894;5.080;2022-11-20T02:15:15;12.90;;;8.90;;
58966;SDS011;44744;51.894;5.080;2022-11-20T02:30:08;14.90;;;10.20;;
58966;SDS011;44744;51.894;5.080;2022-11-20T02:30:55;14.80;;;9.90;;
58966;SDS011;44744;51.894;5.080;2022-11-20T02:31:56;15.70;;;10.60;;
58966;SDS011;44744;51.894;5.080;2022-11-20T02:33:01;15.90;;;11.00;;
58966;SDS011;44744;51.894;5.080;2022-11-20T02:34:01;17.00;;;9.80;;
58966;SDS011;44744;51.894;5.080;2022-11-20T02:35:08;15.00;;;10.50;;
58966;SDS011;44744;51.894;5.080;2022-11-20T02:36:18;15.00;;;10.40;;
58966;SDS011;44744;51.894;5.080;2022-11-20T02:37:30;15.10;;;10.00;;
58966;SDS011;44744;51.894;5.080;2022-11-20T02:38:37;14.70;;;10.30;;
58966;SDS011;44744;51.894;5.080;2022-11-20T02:39:38;14.70;;;9.70;;
58966;SDS011;44744;51.894;5.080;2022-11-20T02:40:44;16.40;;;10.30;;
58966;SDS011;44744;51.894;5.080;2022-11-20T02:41:44;16.40;;;11.00;;
58966;SDS011;44744;51.894;5.080;2022-11-20T02:42:45;14.70;;;9.70;;
58966;SDS011;44744;51.894;5.080;2022-11-20T02:43:45;13.60;;;9.40;;
58966;SDS011;44744;51.894;5.080;2022-11-20T02:44:45;14.30;;;10.60;;
58966;SDS011;44744;51.894;5.080;2022-11-20T02:45:46;12.70;;;9.30;;
58966;SDS011;44744;51.894;5.080;2022-11-20T02:46:52;12.60;;;8.90;;
58966;SDS011;44744;51.894;5.080;2022-11-20T02:47:52;13.10;;;9.30;;
58966;SDS011;44744;51.894;5.080;2022-11-20T02:48:56;14.10;;;9.80;;
58966;SDS011;44744;51.894;5.080;2022-11-20T02:49:56;12.70;;;9.60;;
58966;SDS011;44744;51.894;5.080;2022-11-20T02:50:57;14.20;;;10.00;;
58966;SDS011;44744;51.894;5.080;2022-11-20T02:51:57;12.10;;;9.00;;
58966;SDS011;44744;51.894;5.080;2022-11-20T02:52:58;13.60;;;10.00;;
58966;SDS011;44744;51.894;5.080;2022-11-20T02:53:58;14.30;;;10.00;;
58966;SDS011;44744;51.894;5.080;2022-11-20T02:54:58;15.20;;;10.90;;
58966;SDS011;44744;51.894;5.080;2022-11-20T02:55:59;18.90;;;9.70;;
58966;SDS011;44744;51.894;5.080;2022-11-20T02:57:02;14.50;;;9.90;;
58966;SDS011;44744;51.894;5.080;2022-11-20T02:58:05;15.30;;;9.70;;
58966;SDS011;44744;51.894;5.080;2022-11-20T02:59:05;13.80;;;9.70;;
58966;SDS011;44744;51.894;5.080;2022-11-20T03:00:06;15.80;;;9.30;;
58966;SDS011;44744;51.894;5.080;2022-11-20T03:01:11;14.70;;;9.60;;
58966;SDS011;44744;51.894;5.080;2022-11-20T03:02:12;13.20;;;9.00;;
58966;SDS011;44744;51.894;5.080;2022-11-20T03:03:14;16.30;;;10.00;;
58966;SDS011;44744;51.894;5.080;2022-11-20T03:04:14;13.30;;;9.60;;
58966;SDS011;44744;51.894;5.080;2022-11-20T03:06:41;12.90;;;9.30;;
58966;SDS011;44744;51.894;5.080;2022-11-20T03:07:45;13.20;;;9.30;;
58966;SDS011;44744;51.894;5.080;2022-11-20T03:08:45;15.90;;;9.80;;
58966;SDS011;44744;51.894;5.080;2022-11-20T03:09:45;12.60;;;9.30;;
58966;SDS011;44744;51.894;5.080;2022-11-20T03:10:48;14.10;;;9.90;;
58966;SDS011;44744;51.894;5.080;2022-11-20T03:11:48;13.70;;;9.20;;
58966;SDS011;44744;51.894;5.080;2022-11-20T03:12:55;12.20;;;8.90;;
58966;SDS011;44744;51.894;5.080;2022-11-20T03:13:55;14.90;;;9.70;;
58966;SDS011;44744;51.894;5.080;2022-11-20T03:14:55;16.60;;;8.90;;
58966;SDS011;44744;51.894;5.080;2022-11-20T03:15:56;13.60;;;9.80;;
58966;SDS011;44744;51.894;5.080;2022-11-20T03:17:04;13.40;;;9.50;;
58966;SDS011;44744;51.894;5.080;2022-11-20T03:18:04;12.60;;;9.30;;
58966;SDS011;44744;51.894;5.080;2022-11-20T03:19:04;14.30;;;10.00;;
58966;SDS011;44744;51.894;5.080;2022-11-20T03:20:05;13.70;;;10.00;;
58966;SDS011;44744;51.894;5.080;2022-11-20T03:21:06;13.80;;;10.10;;
58966;SDS011;44744;51.894;5.080;2022-11-20T03:22:07;15.00;;;10.30;;
58966;SDS011;44744;51.894;5.080;2022-11-20T03:23:07;12.70;;;9.60;;
58966;SDS011;44744;51.894;5.080;2022-11-20T03:24:07;14.00;;;10.30;;
58966;SDS011;44744;51.894;5.080;2022-11-20T03:25:08;14.60;;;9.90;;
58966;SDS011;44744;51.894;5.080;2022-11-20T03:26:15;16.20;;;9.50;;
58966;SDS011;44744;51.894;5.080;2022-11-20T03:27:23;15.00;;;10.10;;
58966;SDS011;44744;51.894;5.080;2022-11-20T03:28:24;13.80;;;9.80;;
58966;SDS011;44744;51.894;5.080;2022-11-20T03:29:24;13.90;;;9.50;;
58966;SDS011;44744;51.894;5.080;2022-11-20T03:30:31;15.20;;;10.60;;
58966;SDS011;44744;51.894;5.080;2022-11-20T03:35:42;13.60;;;9.80;;
58966;SDS011;44744;51.894;5.080;2022-11-20T03:37:04;16.00;;;10.30;;
58966;SDS011;44744;51.894;5.080;2022-11-20T03:38:17;13.60;;;9.60;;
58966;SDS011;44744;51.894;5.080;2022-11-20T03:41:35;16.90;;;9.80;;
58966;SDS011;44744;51.894;5.080;2022-11-20T03:42:41;13.60;;;9.40;;
58966;SDS011;44744;51.894;5.080;2022-11-20T03:43:41;14.70;;;10.00;;
58966;SDS011;44744;51.894;5.080;2022-11-20T03:45:02;15.50;;;9.90;;
58966;SDS011;44744;51.894;5.080;2022-11-20T03:46:08;15.40;;;8.90;;
58966;SDS011;44744;51.894;5.080;2022-11-20T03:48:41;16.60;;;11.30;;
58966;SDS011;44744;51.894;5.080;2022-11-20T03:49:42;16.50;;;11.30;;
58966;SDS011;44744;51.894;5.080;2022-11-20T03:50:42;16.10;;;11.60;;
58966;SDS011;44744;51.894;5.080;2022-11-20T03:51:50;16.70;;;12.40;;
58966;SDS011;44744;51.894;5.080;2022-11-20T03:52:56;19.60;;;13.30;;
58966;SDS011;44744;51.894;5.080;2022-11-20T03:53:58;19.80;;;13.80;;
58966;SDS011;44744;51.894;5.080;2022-11-20T03:55:10;18.90;;;13.60;;
58966;SDS011;44744;51.894;5.080;2022-11-20T03:56:25;19.00;;;14.00;;
58966;SDS011;44744;51.894;5.080;2022-11-20T03:57:31;19.70;;;14.10;;
58966;SDS011;44744;51.894;5.080;2022-11-20T03:58:47;18.50;;;12.90;;
58966;SDS011;44744;51.894;5.080;2022-11-20T03:59:48;16.60;;;12.00;;
58966;SDS011;44744;51.894;5.080;2022-11-20T04:02:16;16.30;;;11.40;;
58966;SDS011;44744;51.894;5.080;2022-11-20T04:03:25;15.90;;;11.30;;
58966;SDS011;44744;51.894;5.080;2022-11-20T04:04:25;16.90;;;11.30;;
58966;SDS011;44744;51.894;5.080;2022-11-20T04:07:04;17.00;;;10.90;;
58966;SDS011;44744;51.894;5.080;2022-11-20T04:08:04;14.90;;;10.60;;
58966;SDS011;44744;51.894;5.080;2022-11-20T04:09:05;18.20;;;10.60;;
58966;SDS011;44744;51.894;5.080;2022-11-20T04:10:06;23.90;;;10.80;;
58966;SDS011;44744;51.894;5.080;2022-11-20T04:13:51;16.60;;;9.20;;
58966;SDS011;44744;51.894;5.080;2022-11-20T04:15:18;18.50;;;10.40;;
58966;SDS011;44744;51.894;5.080;2022-11-20T04:17:45;12.60;;;9.30;;
58966;SDS011;44744;51.894;5.080;2022-11-20T04:20:15;14.90;;;10.20;;
58966;SDS011;44744;51.894;5.080;2022-11-20T04:21:33;15.50;;;10.50;;
58966;SDS011;44744;51.894;5.080;2022-11-20T04:23:05;15.60;;;10.80;;
58966;SDS011;44744;51.894;5.080;2022-11-20T04:24:19;17.00;;;11.00;;
58966;SDS011;44744;51.894;5.080;2022-11-20T04:25:51;14.00;;;10.30;;
58966;SDS011;44744;51.894;5.080;2022-11-20T04:27:08;14.30;;;10.20;;
58966;SDS011;44744;51.894;5.080;2022-11-20T04:30:21;16.40;;;10.40;;
58966;SDS011;44744;51.894;5.080;2022-11-20T04:32:04;17.20;;;9.40;;
58966;SDS011;44744;51.894;5.080;2022-11-20T04:33:04;13.80;;;9.60;;
58966;SDS011;44744;51.894;5.080;2022-11-20T04:35:45;12.70;;;9.10;;
58966;SDS011;44744;51.894;5.080;2022-11-20T04:36:58;18.20;;;10.80;;
58966;SDS011;44744;51.894;5.080;2022-11-20T04:38:18;16.10;;;10.30;;
58966;SDS011;44744;51.894;5.080;2022-11-20T04:39:22;15.10;;;10.20;;
58966;SDS011;44744;51.894;5.080;2022-11-20T04:40:35;14.70;;;10.10;;
58966;SDS011;44744;51.894;5.080;2022-11-20T04:41:36;13.90;;;9.50;;
58966;SDS011;44744;51.894;5.080;2022-11-20T04:42:37;14.60;;;10.40;;
58966;SDS011;44744;51.894;5.080;2022-11-20T04:44:32;13.60;;;9.60;;
58966;SDS011;44744;51.894;5.080;2022-11-20T04:45:33;14.40;;;9.70;;
58966;SDS011;44744;51.894;5.080;2022-11-20T04:46:42;17.40;;;10.20;;
58966;SDS011;44744;51.894;5.080;2022-11-20T04:48:19;17.20;;;11.10;;
58966;SDS011;44744;51.894;5.080;2022-11-20T04:49:21;17.40;;;10.20;;
58966;SDS011;44744;51.894;5.080;2022-11-20T04:50:26;15.80;;;10.70;;
58966;SDS011;44744;51.894;5.080;2022-11-20T04:51:27;15.10;;;10.90;;
58966;SDS011;44744;51.894;5.080;2022-11-20T04:53:57;17.60;;;10.80;;
58966;SDS011;44744;51.894;5.080;2022-11-20T04:55:21;14.20;;;10.30;;
58966;SDS011;44744;51.894;5.080;2022-11-20T04:56:35;15.60;;;11.00;;
58966;SDS011;44744;51.894;5.080;2022-11-20T04:58:59;19.00;;;12.10;;
58966;SDS011;44744;51.894;5.080;2022-11-20T05:00:24;16.10;;;11.10;;
58966;SDS011;44744;51.894;5.080;2022-11-20T05:02:00;17.10;;;11.50;;
58966;SDS011;44744;51.894;5.080;2022-11-20T05:04:57;15.50;;;11.00;;
58966;SDS011;44744;51.894;5.080;2022-11-20T05:06:05;16.10;;;11.10;;
58966;SDS011;44744;51.894;5.080;2022-11-20T05:07:25;16.90;;;10.30;;
58966;SDS011;44744;51.894;5.080;2022-11-20T05:09:05;16.50;;;11.00;;
58966;SDS011;44744;51.894;5.080;2022-11-20T05:10:30;19.20;;;10.70;;
58966;SDS011;44744;51.894;5.080;2022-11-20T05:13:24;16.70;;;10.30;;
58966;SDS011;44744;51.894;5.080;2022-11-20T05:14:34;16.00;;;10.50;;
58966;SDS011;44744;51.894;5.080;2022-11-20T05:15:35;19.50;;;11.20;;
58966;SDS011;44744;51.894;5.080;2022-11-20T05:16:45;19.00;;;11.30;;
58966;SDS011;44744;51.894;5.080;2022-11-20T05:17:56;15.10;;;10.80;;
58966;SDS011;44744;51.894;5.080;2022-11-20T05:19:44;16.30;;;11.70;;
58966;SDS011;44744;51.894;5.080;2022-11-20T05:21:06;17.90;;;10.70;;
58966;SDS011;44744;51.894;5.080;2022-11-20T05:22:20;15.10;;;10.40;;
58966;SDS011;44744;51.894;5.080;2022-11-20T05:27:16;15.60;;;10.30;;
58966;SDS011;44744;51.894;5.080;2022-11-20T05:28:13;16.00;;;10.60;;
58966;SDS011;44744;51.894;5.080;2022-11-20T05:29:19;15.40;;;10.80;;
58966;SDS011;44744;51.894;5.080;2022-11-20T05:30:25;17.00;;;11.20;;
58966;SDS011;44744;51.894;5.080;2022-11-20T05:37:00;15.50;;;9.70;;
58966;SDS011;44744;51.894;5.080;2022-11-20T05:38:00;17.00;;;10.80;;
58966;SDS011;44744;51.894;5.080;2022-11-20T05:39:03;14.60;;;10.30;;
58966;SDS011;44744;51.894;5.080;2022-11-20T05:40:24;15.90;;;10.70;;
58966;SDS011;44744;51.894;5.080;2022-11-20T05:41:32;13.30;;;9.60;;
58966;SDS011;44744;51.894;5.080;2022-11-20T05:42:55;16.30;;;10.20;;
58966;SDS011;44744;51.894;5.080;2022-11-20T05:47:37;14.80;;;10.10;;
58966;SDS011;44744;51.894;5.080;2022-11-20T05:48:42;13.70;;;10.00;;
58966;SDS011;44744;51.894;5.080;2022-11-20T05:51:24;15.90;;;10.40;;
58966;SDS011;44744;51.894;5.080;2022-11-20T05:52:27;16.60;;;11.60;;
58966;SDS011;44744;51.894;5.080;2022-11-20T05:56:05;15.60;;;9.90;;
58966;SDS011;44744;51.894;5.080;2022-11-20T05:57:31;14.70;;;10.10;;
58966;SDS011;44744;51.894;5.080;2022-11-20T05:58:53;15.90;;;10.40;;
58966;SDS011;44744;51.894;5.080;2022-11-20T06:03:25;14.70;;;10.00;;
58966;SDS011;44744;51.894;5.080;2022-11-20T06:05:27;14.50;;;10.40;;
58966;SDS011;44744;51.894;5.080;2022-11-20T06:09:12;15.90;;;9.90;;
58966;SDS011;44744;51.894;5.080;2022-11-20T06:12:44;17.20;;;10.50;;
58966;SDS011;44744;51.894;5.080;2022-11-20T06:14:33;18.70;;;10.00;;
58966;SDS011;44744;51.894;5.080;2022-11-20T06:15:36;14.20;;;9.60;;
58966;SDS011;44744;51.894;5.080;2022-11-20T06:17:05;16.50;;;10.30;;
58966;SDS011;44744;51.894;5.080;2022-11-20T06:19:59;14.50;;;10.10;;
58966;SDS011;44744;51.894;5.080;2022-11-20T06:24:19;13.60;;;9.20;;
58966;SDS011;44744;51.894;5.080;2022-11-20T06:25:26;14.20;;;9.40;;
58966;SDS011;44744;51.894;5.080;2022-11-20T06:26:27;17.90;;;11.00;;
58966;SDS011;44744;51.894;5.080;2022-11-20T06:27:28;14.40;;;10.20;;
58966;SDS011;44744;51.894;5.080;2022-11-20T06:28:39;15.20;;;10.30;;
58966;SDS011;44744;51.894;5.080;2022-11-20T06:29:50;14.20;;;10.20;;
58966;SDS011;44744;51.894;5.080;2022-11-20T06:33:31;17.00;;;11.00;;
58966;SDS011;44744;51.894;5.080;2022-11-20T06:40:05;18.80;;;12.10;;
58966;SDS011;44744;51.894;5.080;2022-11-20T06:49:55;18.00;;;11.80;;
58966;SDS011;44744;51.894;5.080;2022-11-20T06:51:41;18.60;;;11.70;;
58966;SDS011;44744;51.894;5.080;2022-11-20T09:46:38;24.50;;;18.20;;
58966;SDS011;44744;51.894;5.080;2022-11-20T10:33:36;26.50;;;17.90;;
58966;SDS011;44744;51.894;5.080;2022-11-20T11:18:34;29.80;;;17.30;;
58966;SDS011;44744;51.894;5.080;2022-11-20T11:19:37;32.00;;;18.90;;
58966;SDS011;44744;51.894;5.080;2022-11-20T11:20:38;27.80;;;17.60;;
58966;SDS011;44744;51.894;5.080;2022-11-20T11:21:38;28.20;;;16.80;;
58966;SDS011;44744;51.894;5.080;2022-11-20T11:22:54;27.50;;;17.00;;
58966;SDS011;44744;51.894;5.080;2022-11-20T11:25:36;28.80;;;17.40;;
58966;SDS011;44744;51.894;5.080;2022-11-20T11:26:20;25.90;;;16.80;;
58966;SDS011;44744;51.894;5.080;2022-11-20T11:27:23;24.60;;;17.00;;
58966;SDS011;44744;51.894;5.080;2022-11-20T11:28:24;27.60;;;18.20;;
58966;SDS011;44744;51.894;5.080;2022-11-20T11:29:25;33.00;;;18.80;;
58966;SDS011;44744;51.894;5.080;2022-11-20T11:30:28;28.90;;;19.30;;
58966;SDS011;44744;51.894;5.080;2022-11-20T11:31:40;26.40;;;17.90;;
58966;SDS011;44744;51.894;5.080;2022-11-20T11:36:42;32.20;;;18.40;;
58966;SDS011;44744;51.894;5.080;2022-11-20T11:38:11;30.90;;;17.80;;
58966;SDS011;44744;51.894;5.080;2022-11-20T11:39:20;30.80;;;17.50;;
58966;SDS011;44744;51.894;5.080;2022-11-20T11:40:25;28.80;;;18.00;;
58966;SDS011;44744;51.894;5.080;2022-11-20T11:41:28;29.80;;;17.50;;
58966;SDS011;44744;51.894;5.080;2022-11-20T11:42:32;25.60;;;15.40;;
58966;SDS011;44744;51.894;5.080;2022-11-20T11:43:34;25.00;;;17.10;;
58966;SDS011;44744;51.894;5.080;2022-11-20T11:44:36;26.90;;;17.90;;
58966;SDS011;44744;51.894;5.080;2022-11-20T11:45:37;28.30;;;17.90;;
58966;SDS011;44744;51.894;5.080;2022-11-20T11:46:37;29.00;;;17.80;;
58966;SDS011;44744;51.894;5.080;2022-11-20T11:47:45;28.20;;;17.80;;
58966;SDS011;44744;51.894;5.080;2022-11-20T11:51:10;28.30;;;19.60;;
58966;SDS011;44744;51.894;5.080;2022-11-20T11:53:52;30.40;;;20.00;;
58966;SDS011;44744;51.894;5.080;2022-11-20T11:54:54;29.60;;;17.50;;
58966;SDS011;44744;51.894;5.080;2022-11-20T11:56:07;27.60;;;18.50;;
58966;SDS011;44744;51.894;5.080;2022-11-20T11:58:34;30.50;;;18.60;;
58966;SDS011;44744;51.894;5.080;2022-11-20T12:00:03;30.30;;;18.60;;
58966;SDS011;44744;51.894;5.080;2022-11-20T12:02:35;27.50;;;17.20;;
58966;SDS011;44744;51.894;5.080;2022-11-20T12:03:37;26.80;;;18.30;;
58966;SDS011;44744;51.894;5.080;2022-11-20T12:04:43;27.70;;;18.60;;
58966;SDS011;44744;51.894;5.080;2022-11-20T12:05:55;30.70;;;18.40;;
58966;SDS011;44744;51.894;5.080;2022-11-20T12:07:11;32.10;;;19.50;;
58966;SDS011;44744;51.894;5.080;2022-11-20T12:09:41;34.40;;;20.30;;
58966;SDS011;44744;51.894;5.080;2022-11-20T12:11:59;34.80;;;22.10;;
58966;SDS011;44744;51.894;5.080;2022-11-20T12:13:15;33.80;;;20.50;;
58966;SDS011;44744;51.894;5.080;2022-11-20T12:16:47;34.20;;;20.00;;
58966;SDS011;44744;51.894;5.080;2022-11-20T12:17:47;36.80;;;20.80;;
58966;SDS011;44744;51.894;5.080;2022-11-20T12:18:49;40.60;;;22.80;;
58966;SDS011;44744;51.894;5.080;2022-11-20T12:20:02;49.40;;;26.60;;
58966;SDS011;44744;51.894;5.080;2022-11-20T12:24:34;57.30;;;31.10;;
58966;SDS011;44744;51.894;5.080;2022-11-20T12:25:39;42.80;;;23.60;;
58966;SDS011;44744;51.894;5.080;2022-11-20T12:31:00;64.60;;;33.20;;
58966;SDS011;44744;51.894;5.080;2022-11-20T12:36:48;36.60;;;20.20;;
58966;SDS011;44744;51.894;5.080;2022-11-20T12:39:35;34.50;;;19.50;;
58966;SDS011;44744;51.894;5.080;2022-11-20T13:07:20;35.70;;;21.20;;
58966;SDS011;44744;51.894;5.080;2022-11-20T13:08:23;39.20;;;22.80;;
58966;SDS011;44744;51.894;5.080;2022-11-20T13:09:33;41.10;;;22.80;;
58966;SDS011;44744;51.894;5.080;2022-11-20T13:15:40;36.00;;;19.70;;
58966;SDS011;44744;51.894;5.080;2022-11-20T13:21:57;38.00;;;21.10;;
58966;SDS011;44744;51.894;5.080;2022-11-20T13:35:54;36.80;;;21.10;;
58966;SDS011;44744;51.894;5.080;2022-11-20T13:38:48;33.80;;;21.20;;
58966;SDS011;44744;51.894;5.080;2022-11-20T13:40:13;33.80;;;21.30;;
58966;SDS011;44744;51.894;5.080;2022-11-20T13:45:00;39.50;;;23.40;;
58966;SDS011;44744;51.894;5.080;2022-11-20T13:46:43;39.60;;;23.50;;
58966;SDS011;44744;51.894;5.080;2022-11-20T13:47:55;42.40;;;23.30;;
58966;SDS011;44744;51.894;5.080;2022-11-20T13:49:26;46.00;;;24.70;;
58966;SDS011;44744;51.894;5.080;2022-11-20T13:57:54;41.50;;;23.40;;
58966;SDS011;44744;51.894;5.080;2022-11-20T14:01:17;43.30;;;26.60;;
58966;SDS011;44744;51.894;5.080;2022-11-20T14:02:30;40.70;;;26.40;;
58966;SDS011;44744;51.894;5.080;2022-11-20T14:17:08;42.40;;;23.60;;
58966;SDS011;44744;51.894;5.080;2022-11-20T14:18:20;39.50;;;23.60;;
58966;SDS011;44744;51.894;5.080;2022-11-20T14:19:30;40.10;;;23.60;;
58966;SDS011;44744;51.894;5.080;2022-11-20T14:20:33;42.40;;;25.70;;
58966;SDS011;44744;51.894;5.080;2022-11-20T14:38:42;38.40;;;23.60;;
58966;SDS011;44744;51.894;5.080;2022-11-20T14:39:47;38.00;;;24.20;;
58966;SDS011;44744;51.894;5.080;2022-11-20T14:40:50;37.80;;;22.00;;
58966;SDS011;44744;51.894;5.080;2022-11-20T14:41:51;37.90;;;22.50;;
58966;SDS011;44744;51.894;5.080;2022-11-20T14:43:32;34.10;;;20.90;;
58966;SDS011;44744;51.894;5.080;2022-11-20T14:44:56;35.20;;;20.90;;
58966;SDS011;44744;51.894;5.080;2022-11-20T14:46:14;35.60;;;21.10;;
58966;SDS011;44744;51.894;5.080;2022-11-20T14:49:00;37.50;;;20.70;;
58966;SDS011;44744;51.894;5.080;2022-11-20T14:51:33;35.90;;;21.90;;
58966;SDS011;44744;51.894;5.080;2022-11-20T14:52:40;40.00;;;22.60;;
58966;SDS011;44744;51.894;5.080;2022-11-20T14:55:59;38.20;;;23.00;;
58966;SDS011;44744;51.894;5.080;2022-11-20T15:05:26;40.00;;;21.60;;
58966;SDS011;44744;51.894;5.080;2022-11-20T15:08:23;35.70;;;21.80;;
58966;SDS011;44744;51.894;5.080;2022-11-20T15:16:21;39.50;;;22.70;;
58966;SDS011;44744;51.894;5.080;2022-11-20T15:17:43;37.50;;;22.60;;
58966;SDS011;44744;51.894;5.080;2022-11-20T15:18:46;40.80;;;22.10;;
58966;SDS011;44744;51.894;5.080;2022-11-20T15:21:47;42.30;;;24.20;;
58966;SDS011;44744;51.894;5.080;2022-11-20T15:22:50;36.80;;;22.60;;
58966;SDS011;44744;51.894;5.080;2022-11-20T15:23:53;35.40;;;21.60;;
58966;SDS011;44744;51.894;5.080;2022-11-20T15:24:53;41.50;;;21.90;;